createdAt,value
2023-08-08T00:02:04.137Z,11.50
2023-08-08T00:04:31.212Z,11.40
2023-08-08T00:06:58.245Z,11.30
2023-08-08T00:09:25.558Z,11.30
2023-08-08T00:11:52.671Z,11.30
2023-08-08T00:14:19.842Z,11.30
2023-08-08T00:16:47.015Z,11.30
2023-08-08T00:19:14.198Z,11.30
2023-08-08T00:21:41.302Z,11.30
2023-08-08T00:24:08.238Z,11.20
2023-08-08T00:26:35.349Z,11.20
2023-08-08T00:29:02.403Z,11.30
2023-08-08T00:31:29.622Z,11.20
2023-08-08T00:33:56.856Z,11.10
2023-08-08T00:36:23.911Z,11.10
2023-08-08T00:38:51.149Z,11.10
2023-08-08T00:41:18.398Z,11.10
2023-08-08T00:43:45.373Z,11.10
2023-08-08T00:46:12.907Z,11.00
2023-08-08T00:48:40.030Z,11.00
2023-08-08T00:51:07.119Z,10.90
2023-08-08T00:53:34.525Z,10.80
2023-08-08T00:56:01.725Z,10.80
2023-08-08T00:58:29.004Z,10.70
2023-08-08T01:00:58.863Z,10.70
2023-08-08T01:03:25.941Z,10.80
2023-08-08T01:06:00.138Z,10.80
2023-08-08T01:08:34.386Z,10.80
2023-08-08T01:11:02.202Z,10.80
2023-08-08T01:13:31.574Z,10.90
2023-08-08T01:15:59.761Z,10.90
2023-08-08T01:18:27.495Z,11.00
2023-08-08T01:20:55.678Z,11.10
2023-08-08T01:23:39.897Z,11.10
2023-08-08T01:26:07.335Z,11.10
2023-08-08T01:28:36.818Z,11.10
2023-08-08T01:31:03.906Z,11.10
2023-08-08T01:33:31.422Z,11.10
2023-08-08T01:36:06.068Z,11.10
2023-08-08T01:38:41.795Z,11.00
2023-08-08T01:41:09.876Z,11.00
2023-08-08T01:43:39.233Z,11.00
2023-08-08T01:46:06.833Z,11.00
2023-08-08T01:48:34.400Z,11.00
2023-08-08T01:51:01.556Z,11.00
2023-08-08T01:53:28.829Z,11.00
2023-08-08T01:55:55.735Z,11.00
2023-08-08T01:58:22.936Z,11.00
2023-08-08T02:00:50.355Z,11.00
2023-08-08T02:03:17.516Z,11.00
2023-08-08T02:05:44.600Z,11.00
2023-08-08T02:08:11.630Z,10.90
2023-08-08T02:10:38.642Z,10.90
2023-08-08T02:13:05.773Z,11.00
2023-08-08T02:15:32.776Z,11.00
2023-08-08T02:18:01.988Z,11.00
2023-08-08T02:20:28.961Z,11.00
2023-08-08T02:22:56.127Z,11.00
2023-08-08T02:25:23.071Z,11.00
2023-08-08T02:27:50.000Z,11.00
2023-08-08T02:30:17.280Z,11.00
2023-08-08T02:32:44.225Z,10.90
2023-08-08T02:35:11.249Z,10.90
2023-08-08T02:37:38.316Z,10.80
2023-08-08T02:40:06.977Z,10.80
2023-08-08T02:42:34.169Z,10.80
2023-08-08T02:45:01.179Z,10.80
2023-08-08T02:47:28.234Z,10.80
2023-08-08T02:49:55.332Z,10.70
2023-08-08T02:52:22.458Z,10.70
2023-08-08T02:54:49.394Z,10.60
2023-08-08T02:57:17.402Z,10.40
2023-08-08T02:59:44.333Z,10.40
2023-08-08T03:02:11.306Z,10.40
2023-08-08T03:04:38.290Z,10.40
2023-08-08T03:07:05.575Z,10.40
2023-08-08T03:09:32.538Z,10.30
2023-08-08T03:11:59.893Z,10.30
2023-08-08T03:14:27.146Z,10.20
2023-08-08T03:16:54.097Z,10.20
2023-08-08T03:19:21.252Z,10.20
2023-08-08T03:21:48.211Z,10.10
2023-08-08T03:24:15.208Z,10.10
2023-08-08T03:26:42.369Z,10.20
2023-08-08T03:29:11.611Z,10.20
2023-08-08T03:31:38.645Z,10.20
2023-08-08T03:34:05.991Z,10.20
2023-08-08T03:36:33.312Z,10.20
2023-08-08T03:39:00.451Z,10.10
2023-08-08T03:41:27.728Z,10.20
2023-08-08T03:43:54.958Z,10.10
2023-08-08T03:46:21.936Z,10.10
2023-08-08T03:48:48.928Z,10.10
2023-08-08T03:51:15.866Z,10.10
2023-08-08T03:53:42.827Z,10.10
2023-08-08T03:56:09.848Z,10.00
2023-08-08T03:58:37.004Z,10.00
2023-08-08T04:01:04.521Z,10.10
2023-08-08T04:03:31.663Z,10.00
2023-08-08T04:05:58.872Z,10.00
2023-08-08T04:08:26.017Z,10.00
2023-08-08T04:10:53.161Z,10.00
2023-08-08T04:13:20.310Z,10.00
2023-08-08T04:15:47.332Z,10.00
2023-08-08T04:18:14.405Z,10.00
2023-08-08T04:20:41.455Z,9.90
2023-08-08T04:23:08.362Z,9.90
2023-08-08T04:25:35.393Z,9.90
2023-08-08T04:28:02.619Z,9.90
2023-08-08T04:30:29.829Z,9.90
2023-08-08T04:32:56.992Z,9.90
2023-08-08T04:35:24.047Z,10.00
2023-08-08T04:37:51.675Z,9.90
2023-08-08T04:40:18.866Z,9.90
2023-08-08T04:42:46.136Z,10.00
2023-08-08T04:45:14.335Z,10.00
2023-08-08T04:47:41.640Z,10.00
2023-08-08T04:50:09.101Z,9.90
2023-08-08T04:52:36.291Z,9.90
2023-08-08T04:55:03.605Z,9.90
2023-08-08T04:57:30.805Z,9.90
2023-08-08T04:59:58.733Z,9.90
2023-08-08T05:02:25.660Z,9.90
2023-08-08T05:04:52.862Z,10.00
2023-08-08T05:07:19.821Z,10.00
2023-08-08T05:09:47.097Z,10.00
2023-08-08T05:12:14.068Z,10.00
2023-08-08T05:14:41.270Z,10.00
2023-08-08T05:17:08.705Z,10.00
2023-08-08T05:19:36.150Z,10.10
2023-08-08T05:22:03.349Z,10.10
2023-08-08T05:24:30.319Z,10.10
2023-08-08T05:26:57.399Z,10.10
2023-08-08T05:29:24.554Z,10.20
2023-08-08T05:31:51.644Z,10.20
2023-08-08T05:34:18.810Z,10.20
2023-08-08T05:36:45.826Z,10.30
2023-08-08T05:39:13.023Z,10.30
2023-08-08T05:41:40.196Z,10.30
2023-08-08T05:44:07.235Z,10.30
2023-08-08T05:46:34.346Z,10.30
2023-08-08T05:49:02.698Z,10.40
2023-08-08T05:51:29.903Z,10.40
2023-08-08T05:53:58.487Z,10.50
2023-08-08T05:56:27.147Z,10.50
2023-08-08T05:58:54.231Z,10.60
2023-08-08T06:01:21.155Z,10.60
2023-08-08T06:03:48.722Z,10.70
2023-08-08T06:06:16.102Z,10.80
2023-08-08T06:08:43.088Z,10.80
2023-08-08T06:11:10.091Z,10.90
2023-08-08T06:13:39.026Z,10.90
2023-08-08T06:16:08.068Z,11.00
2023-08-08T06:18:35.552Z,11.10
2023-08-08T06:21:03.665Z,11.20
2023-08-08T06:23:30.879Z,11.30
2023-08-08T06:25:57.884Z,11.40
2023-08-08T06:28:25.151Z,11.50
2023-08-08T06:30:52.449Z,11.60
2023-08-08T06:33:19.411Z,11.70
2023-08-08T06:35:46.350Z,11.80
2023-08-08T06:38:13.758Z,11.90
2023-08-08T06:40:40.782Z,11.90
2023-08-08T06:43:07.833Z,12.10
2023-08-08T06:45:35.006Z,12.20
2023-08-08T06:48:02.296Z,12.30
2023-08-08T06:50:29.216Z,12.40
2023-08-08T06:52:56.279Z,12.50
2023-08-08T06:55:23.538Z,12.50
2023-08-08T06:57:50.532Z,12.60
2023-08-08T07:00:17.607Z,12.70
2023-08-08T07:02:44.679Z,12.70
2023-08-08T07:05:11.790Z,12.90
2023-08-08T07:07:39.302Z,13.00
2023-08-08T07:10:07.932Z,13.00
2023-08-08T07:12:35.053Z,13.10
2023-08-08T07:15:02.004Z,13.20
2023-08-08T07:17:29.003Z,13.30
2023-08-08T07:19:56.039Z,13.40
2023-08-08T07:22:23.651Z,13.40
2023-08-08T07:24:50.626Z,13.40
2023-08-08T07:27:17.599Z,13.40
2023-08-08T07:29:44.647Z,13.70
2023-08-08T07:32:11.820Z,13.70
2023-08-08T07:34:38.892Z,13.80
2023-08-08T07:37:06.592Z,13.80
2023-08-08T07:39:33.559Z,13.90
2023-08-08T07:42:00.733Z,14.00
2023-08-08T07:44:27.965Z,14.30
2023-08-08T07:46:54.961Z,14.40
2023-08-08T07:49:21.910Z,14.50
2023-08-08T07:51:48.892Z,14.50
2023-08-08T07:54:15.813Z,14.90
2023-08-08T07:59:11.210Z,15.40
2023-08-08T08:01:38.376Z,15.30
2023-08-08T08:04:05.485Z,15.30
2023-08-08T08:06:33.065Z,15.40
2023-08-08T08:09:00.083Z,15.60
2023-08-08T08:11:27.951Z,15.60
2023-08-08T08:13:54.893Z,15.80
2023-08-08T08:16:22.152Z,16.10
2023-08-08T08:18:49.264Z,16.00
2023-08-08T08:21:18.472Z,16.10
2023-08-08T08:23:46.907Z,16.10
2023-08-08T08:26:13.879Z,15.90
2023-08-08T08:28:43.922Z,16.00
2023-08-08T08:31:10.938Z,16.00
2023-08-08T08:33:38.082Z,15.90
2023-08-08T08:36:05.151Z,16.10
2023-08-08T08:38:32.277Z,16.50
2023-08-08T08:41:00.091Z,16.80
2023-08-08T08:43:27.455Z,17.00
2023-08-08T08:45:55.611Z,16.90
2023-08-08T08:48:23.664Z,16.80
2023-08-08T08:50:50.849Z,17.00
2023-08-08T08:53:18.985Z,17.20
2023-08-08T08:55:47.633Z,17.30
2023-08-08T08:58:20.409Z,17.40
2023-08-08T09:00:48.887Z,17.70
2023-08-08T09:03:17.073Z,18.20
2023-08-08T09:05:46.060Z,18.70
2023-08-08T09:08:13.302Z,18.50
2023-08-08T09:10:40.416Z,18.70
2023-08-08T09:13:07.375Z,19.00
2023-08-08T09:15:35.413Z,19.00
2023-08-08T09:18:02.981Z,19.10
2023-08-08T09:20:30.394Z,19.30
2023-08-08T09:22:58.343Z,19.40
2023-08-08T09:25:27.235Z,19.30
2023-08-08T09:27:57.228Z,18.70
2023-08-08T09:30:24.214Z,18.50
2023-08-08T09:32:51.232Z,17.80
2023-08-08T09:35:18.339Z,17.50
2023-08-08T09:37:45.434Z,17.50
2023-08-08T09:40:13.137Z,17.60
2023-08-08T09:42:42.002Z,17.80
2023-08-08T09:45:10.506Z,17.30
2023-08-08T09:47:38.984Z,17.40
2023-08-08T09:50:06.956Z,17.80
2023-08-08T09:52:40.473Z,18.20
2023-08-08T09:55:08.984Z,18.40
2023-08-08T09:57:36.341Z,18.10
2023-08-08T10:00:06.047Z,18.40
2023-08-08T10:02:33.672Z,18.20
2023-08-08T10:05:01.231Z,17.40
2023-08-08T10:07:28.204Z,17.20
2023-08-08T10:09:55.219Z,17.40
2023-08-08T10:12:23.638Z,17.90
2023-08-08T10:14:51.380Z,18.60
2023-08-08T10:17:21.087Z,19.00
2023-08-08T10:19:53.119Z,19.30
2023-08-08T10:22:26.374Z,20.00
2023-08-08T10:24:57.383Z,20.10
2023-08-08T10:27:34.916Z,19.80
2023-08-08T10:30:11.559Z,19.20
2023-08-08T10:32:49.580Z,18.60
2023-08-08T10:35:16.586Z,18.20
2023-08-08T10:37:55.056Z,18.00
2023-08-08T10:40:22.197Z,18.10
2023-08-08T10:42:49.250Z,17.70
2023-08-08T10:45:18.164Z,17.60
2023-08-08T10:47:48.337Z,17.40
2023-08-08T10:50:17.848Z,17.20
2023-08-08T10:52:52.114Z,16.70
2023-08-08T10:55:24.165Z,16.70
2023-08-08T10:58:11.844Z,17.40
2023-08-08T11:00:43.591Z,18.30
2023-08-08T11:03:11.087Z,18.80
2023-08-08T11:05:39.351Z,19.20
2023-08-08T11:08:08.571Z,19.60
2023-08-08T11:10:41.888Z,20.10
2023-08-08T11:13:10.075Z,20.20
2023-08-08T11:15:38.168Z,19.90
2023-08-08T11:18:06.937Z,20.20
2023-08-08T11:20:35.449Z,20.00
2023-08-08T11:23:03.273Z,20.40
2023-08-08T11:25:31.470Z,20.20
2023-08-08T11:27:59.555Z,20.40
2023-08-08T11:30:30.664Z,20.90
2023-08-08T11:35:30.880Z,21.40
2023-08-08T11:37:59.587Z,21.60
2023-08-08T11:40:28.983Z,21.40
2023-08-08T11:42:58.070Z,21.60
2023-08-08T11:45:25.983Z,21.80
2023-08-08T11:47:54.124Z,22.30
2023-08-08T11:50:25.830Z,22.30
2023-08-08T11:52:54.652Z,22.40
2023-08-08T11:55:23.743Z,21.80
2023-08-08T11:57:51.208Z,21.10
2023-08-08T12:00:19.427Z,20.40
2023-08-08T12:02:47.470Z,19.80
2023-08-08T12:05:22.905Z,20.40
2023-08-08T12:07:51.352Z,21.00
2023-08-08T12:10:21.973Z,21.10
2023-08-08T12:12:55.458Z,20.40
2023-08-08T12:15:22.725Z,19.40
2023-08-08T12:17:50.623Z,19.40
2023-08-08T12:20:18.048Z,19.20
2023-08-08T12:22:45.225Z,19.20
2023-08-08T12:25:12.389Z,19.50
2023-08-08T12:27:39.985Z,20.40
2023-08-08T12:30:08.519Z,21.00
2023-08-08T12:32:35.588Z,21.20
2023-08-08T12:35:02.675Z,21.10
2023-08-08T12:37:29.770Z,20.40
2023-08-08T12:39:57.568Z,19.60
2023-08-08T12:42:24.616Z,19.70
2023-08-08T12:44:54.842Z,20.10
2023-08-08T12:47:22.318Z,20.40
2023-08-08T12:49:49.459Z,20.80
2023-08-08T12:52:16.551Z,21.40
2023-08-08T12:54:44.198Z,21.90
2023-08-08T12:57:11.184Z,21.50
2023-08-08T12:59:38.496Z,21.00
2023-08-08T13:02:05.712Z,20.60
2023-08-08T13:04:32.704Z,19.60
2023-08-08T13:07:00.280Z,18.90
2023-08-08T13:09:27.353Z,18.50
2023-08-08T13:11:54.442Z,18.30
2023-08-08T13:14:21.430Z,18.00
2023-08-08T13:16:48.983Z,18.10
2023-08-08T13:19:17.947Z,18.50
2023-08-08T13:21:44.960Z,19.00
2023-08-08T13:24:14.018Z,19.50
2023-08-08T13:26:41.365Z,19.80
2023-08-08T13:29:09.360Z,19.60
2023-08-08T13:31:36.699Z,19.40
2023-08-08T13:34:03.758Z,19.00
2023-08-08T13:36:30.715Z,18.50
2023-08-08T13:38:57.734Z,18.40
2023-08-08T13:41:25.385Z,18.50
2023-08-08T13:43:52.338Z,18.70
2023-08-08T13:46:19.307Z,19.00
2023-08-08T13:48:46.524Z,19.10
2023-08-08T13:51:13.675Z,19.20
2023-08-08T13:53:40.631Z,19.10
2023-08-08T13:56:07.703Z,18.70
2023-08-08T13:58:35.909Z,17.70
2023-08-08T14:01:02.809Z,17.50
2023-08-08T14:03:29.958Z,17.20
2023-08-08T14:05:57.117Z,17.00
2023-08-08T14:08:24.030Z,17.10
2023-08-08T14:10:51.137Z,17.10
2023-08-08T14:13:20.013Z,17.00
2023-08-08T14:15:47.343Z,17.40
2023-08-08T14:18:14.683Z,17.70
2023-08-08T14:20:42.093Z,17.60
2023-08-08T14:23:09.074Z,17.80
2023-08-08T14:25:36.649Z,17.70
2023-08-08T14:28:05.409Z,17.60
2023-08-08T14:30:32.471Z,17.30
2023-08-08T14:32:59.468Z,17.10
2023-08-08T14:35:26.540Z,17.00
2023-08-08T14:37:53.549Z,17.20
2023-08-08T14:40:20.546Z,17.90
2023-08-08T14:42:47.512Z,18.10
2023-08-08T14:45:14.740Z,18.40
2023-08-08T14:47:41.733Z,18.30
2023-08-08T14:50:09.587Z,18.30
2023-08-08T14:52:36.650Z,17.90
2023-08-08T14:55:03.995Z,17.80
2023-08-08T14:57:31.000Z,17.60
2023-08-08T15:00:00.754Z,17.30
2023-08-08T15:02:28.263Z,17.10
2023-08-08T15:04:55.414Z,16.70
2023-08-08T15:07:23.264Z,16.50
2023-08-08T15:09:50.985Z,16.50
2023-08-08T15:12:18.312Z,16.40
2023-08-08T15:14:45.440Z,16.10
2023-08-08T15:17:12.466Z,16.30
2023-08-08T15:19:39.563Z,16.20
2023-08-08T15:22:07.701Z,16.20
2023-08-08T15:24:37.145Z,16.30
2023-08-08T15:27:05.454Z,16.30
2023-08-08T15:29:32.538Z,16.90
2023-08-08T15:31:59.569Z,17.50
2023-08-08T15:34:26.825Z,18.00
2023-08-08T15:36:53.827Z,18.20
2023-08-08T15:39:22.382Z,18.30
2023-08-08T15:41:49.435Z,17.90
2023-08-08T15:44:16.504Z,17.80
2023-08-08T15:46:43.477Z,17.60
2023-08-08T15:49:13.622Z,17.50
2023-08-08T15:51:42.824Z,17.60
2023-08-08T15:54:10.280Z,17.80
2023-08-08T15:56:39.405Z,18.10
2023-08-08T15:59:07.053Z,18.50
2023-08-08T16:01:34.748Z,18.50
2023-08-08T16:04:02.039Z,18.80
2023-08-08T16:06:30.205Z,19.00
2023-08-08T16:08:57.169Z,18.60
2023-08-08T16:11:24.178Z,18.50
2023-08-08T16:13:51.277Z,18.60
2023-08-08T16:16:18.229Z,18.90
2023-08-08T16:18:45.209Z,19.20
2023-08-08T16:21:12.467Z,19.10
2023-08-08T16:23:39.665Z,19.00
2023-08-08T16:26:06.599Z,18.80
2023-08-08T16:28:33.643Z,18.80
2023-08-08T16:31:00.647Z,18.90
2023-08-08T16:33:27.658Z,18.90
2023-08-08T16:35:55.015Z,19.00
2023-08-08T16:38:21.992Z,19.10
2023-08-08T16:40:49.070Z,19.20
2023-08-08T16:43:17.174Z,19.00
2023-08-08T16:45:44.174Z,18.50
2023-08-08T16:48:11.100Z,18.20
2023-08-08T16:50:38.244Z,17.90
2023-08-08T16:53:05.161Z,17.60
2023-08-08T16:55:32.137Z,17.50
2023-08-08T16:57:59.095Z,17.50
2023-08-08T17:00:26.080Z,17.40
2023-08-08T17:02:53.024Z,17.40
2023-08-08T17:05:20.033Z,17.20
2023-08-08T17:07:46.978Z,17.20
2023-08-08T17:10:14.061Z,17.20
2023-08-08T17:12:41.035Z,17.20
2023-08-08T17:15:08.538Z,17.30
2023-08-08T17:17:35.631Z,17.10
2023-08-08T17:20:06.186Z,17.10
2023-08-08T17:22:33.617Z,17.00
2023-08-08T17:25:01.144Z,16.70
2023-08-08T17:27:28.276Z,16.50
2023-08-08T17:29:55.210Z,16.50
2023-08-08T17:32:22.761Z,16.30
2023-08-08T17:34:49.813Z,16.10
2023-08-08T17:37:16.781Z,16.00
2023-08-08T17:39:43.741Z,16.00
2023-08-08T17:42:10.980Z,15.90
2023-08-08T17:44:37.896Z,16.00
2023-08-08T17:47:04.876Z,15.80
2023-08-08T17:49:31.821Z,15.80
2023-08-08T17:51:59.130Z,15.70
2023-08-08T17:54:26.590Z,15.60
2023-08-08T17:56:53.588Z,15.60
2023-08-08T17:59:20.703Z,15.60
2023-08-08T18:01:48.139Z,15.60
2023-08-08T18:04:15.284Z,15.70
2023-08-08T18:06:42.244Z,15.70
2023-08-08T18:09:09.230Z,15.70
2023-08-08T18:11:39.589Z,15.80
2023-08-08T18:14:08.248Z,15.80
2023-08-08T18:16:36.191Z,15.80
2023-08-08T18:19:04.306Z,15.70
2023-08-08T18:21:32.538Z,15.70
2023-08-08T18:23:59.946Z,15.70
2023-08-08T18:26:27.976Z,15.60
2023-08-08T18:28:55.040Z,15.50
2023-08-08T18:31:22.293Z,15.30
2023-08-08T18:33:49.256Z,15.30
2023-08-08T18:36:16.245Z,15.20
2023-08-08T18:38:43.885Z,15.10
2023-08-08T18:41:11.495Z,15.10
2023-08-08T18:43:38.500Z,15.10
2023-08-08T18:46:06.174Z,15.00
2023-08-08T18:48:33.191Z,14.90
2023-08-08T18:51:01.107Z,15.00
2023-08-08T18:53:28.143Z,15.00
2023-08-08T18:55:55.069Z,15.00
2023-08-08T18:58:22.152Z,14.90
2023-08-08T19:00:50.004Z,14.90
2023-08-08T19:03:19.589Z,14.90
2023-08-08T19:05:46.712Z,14.90
2023-08-08T19:08:13.641Z,14.80
2023-08-08T19:10:40.554Z,14.80
2023-08-08T19:13:07.500Z,14.70
2023-08-08T19:15:34.503Z,14.70
2023-08-08T19:18:01.435Z,14.60
2023-08-08T19:20:28.462Z,14.60
2023-08-08T19:22:55.387Z,14.40
2023-08-08T19:25:23.361Z,14.40
2023-08-08T19:27:50.386Z,14.30
2023-08-08T19:30:17.418Z,14.20
2023-08-08T19:32:44.460Z,14.10
2023-08-08T19:35:11.649Z,14.00
2023-08-08T19:37:38.641Z,14.00
2023-08-08T19:40:06.369Z,13.90
2023-08-08T19:42:33.490Z,13.90
2023-08-08T19:45:00.485Z,13.90
2023-08-08T19:47:27.505Z,13.90
2023-08-08T19:49:54.480Z,13.90
2023-08-08T19:52:21.454Z,13.80
2023-08-08T19:54:48.661Z,13.70
2023-08-08T19:57:15.738Z,13.60
2023-08-08T19:59:42.707Z,13.50
2023-08-08T20:02:09.756Z,13.40
2023-08-08T20:04:37.075Z,13.30
2023-08-08T20:07:04.111Z,13.10
2023-08-08T20:09:31.511Z,12.90
2023-08-08T20:11:58.656Z,12.80
2023-08-08T20:14:26.544Z,12.70
2023-08-08T20:16:53.523Z,12.60
2023-08-08T20:19:20.437Z,12.60
2023-08-08T20:21:47.367Z,12.70
2023-08-08T20:24:14.343Z,12.60
2023-08-08T20:26:41.753Z,12.60
2023-08-08T20:29:08.876Z,12.50
2023-08-08T20:31:36.035Z,12.60
2023-08-08T20:34:03.045Z,12.60
2023-08-08T20:36:30.065Z,12.60
2023-08-08T20:38:56.995Z,12.60
2023-08-08T20:41:23.955Z,12.60
2023-08-08T20:43:51.046Z,12.70
2023-08-08T20:46:18.021Z,12.70
2023-08-08T20:48:46.082Z,12.80
2023-08-08T20:51:13.038Z,12.80
2023-08-08T20:53:39.963Z,12.80
2023-08-08T20:56:06.895Z,12.90
2023-08-08T20:58:34.001Z,12.90
2023-08-08T21:01:02.084Z,12.80
2023-08-08T21:03:29.229Z,12.80
2023-08-08T21:05:56.227Z,12.80
2023-08-08T21:08:23.244Z,12.90
2023-08-08T21:10:50.314Z,12.90
2023-08-08T21:13:17.266Z,12.90
2023-08-08T21:15:44.429Z,12.80
2023-08-08T21:18:11.364Z,12.80
2023-08-08T21:20:38.394Z,12.70
2023-08-08T21:23:05.432Z,12.70
2023-08-08T21:25:32.544Z,12.50
2023-08-08T21:28:01.865Z,12.50
2023-08-08T21:30:28.849Z,12.40
2023-08-08T21:32:55.845Z,12.30
2023-08-08T21:35:22.772Z,12.20
2023-08-08T21:37:49.728Z,12.10
2023-08-08T21:40:16.712Z,12.00
2023-08-08T21:42:43.682Z,11.90
2023-08-08T21:45:11.437Z,11.80
2023-08-08T21:47:39.680Z,11.80
2023-08-08T21:50:07.840Z,11.80
2023-08-08T21:52:35.805Z,11.70
2023-08-08T21:55:02.824Z,11.60
2023-08-08T21:57:29.851Z,11.60
2023-08-08T21:59:56.790Z,11.50
2023-08-08T22:02:23.908Z,11.40
2023-08-08T22:04:52.132Z,11.40
2023-08-08T22:07:19.178Z,11.30
2023-08-08T22:09:46.088Z,11.30
2023-08-08T22:12:13.060Z,11.20
2023-08-08T22:14:39.979Z,11.30
2023-08-08T22:17:06.962Z,11.30
2023-08-08T22:19:33.995Z,11.30
2023-08-08T22:22:01.092Z,11.30
2023-08-08T22:24:28.113Z,11.30
2023-08-08T22:26:55.083Z,11.30
2023-08-08T22:29:22.034Z,11.30
2023-08-08T22:31:48.946Z,11.30
2023-08-08T22:34:15.939Z,11.30
2023-08-08T22:36:42.892Z,11.30
2023-08-08T22:39:09.898Z,11.30
2023-08-08T22:41:36.850Z,11.30
2023-08-08T22:44:04.042Z,11.20
2023-08-08T22:46:31.048Z,11.20
2023-08-08T22:48:58.022Z,11.20
2023-08-08T22:51:25.010Z,11.10
2023-08-08T22:53:51.970Z,11.00
2023-08-08T22:56:18.936Z,11.00
2023-08-08T22:58:48.266Z,10.90
2023-08-08T23:01:15.338Z,10.80
2023-08-08T23:03:42.425Z,10.80
2023-08-08T23:06:09.530Z,10.80
2023-08-08T23:08:36.543Z,10.80
2023-08-08T23:11:03.470Z,10.90
2023-08-08T23:13:30.408Z,10.80
2023-08-08T23:15:57.565Z,10.80
2023-08-08T23:18:24.634Z,10.80
2023-08-08T23:20:51.637Z,10.70
2023-08-08T23:23:18.660Z,10.70
2023-08-08T23:25:45.678Z,10.60
2023-08-08T23:28:12.722Z,10.50
2023-08-08T23:30:39.721Z,10.50
2023-08-08T23:33:06.917Z,10.50
2023-08-08T23:35:33.940Z,10.50
2023-08-08T23:38:00.904Z,10.50
2023-08-08T23:40:27.850Z,10.40
2023-08-08T23:42:54.850Z,10.50
2023-08-08T23:45:21.795Z,10.50
2023-08-08T23:47:49.052Z,10.50
2023-08-08T23:50:16.182Z,10.50
2023-08-08T23:52:43.319Z,10.60
2023-08-08T23:55:11.056Z,10.60
2023-08-08T23:57:38.443Z,10.50
